sensor_id;sensor_type;location;lat;lon;timestamp;pressure;altitude;pressure_sealevel;temperature;humidity
18569;BME280;14780;48.316;-1.050;2023-04-27T00:02:38;99029.63;;;23.31;38.39
18569;BME280;14780;48.316;-1.050;2023-04-27T00:05:23;99024.44;;;23.29;38.29
18569;BME280;14780;48.316;-1.050;2023-04-27T00:08:08;99022.81;;;23.28;38.39
18569;BME280;14780;48.316;-1.050;2023-04-27T00:10:53;99025.53;;;23.28;38.42
18569;BME280;14780;48.316;-1.050;2023-04-27T00:13:38;99019.28;;;23.28;38.33
18569;BME280;14780;48.316;-1.050;2023-04-27T00:16:22;99009.16;;;23.28;38.25
18569;BME280;14780;48.316;-1.050;2023-04-27T00:19:07;99007.53;;;23.27;38.37
18569;BME280;14780;48.316;-1.050;2023-04-27T00:21:52;99014.88;;;23.27;38.27
18569;BME280;14780;48.316;-1.050;2023-04-27T00:24:37;99014.88;;;23.27;38.38
18569;BME280;14780;48.316;-1.050;2023-04-27T00:27:22;99018.69;;;23.26;38.37
18569;BME280;14780;48.316;-1.050;2023-04-27T00:30:07;99009.97;;;23.24;38.42
18569;BME280;14780;48.316;-1.050;2023-04-27T00:32:52;99005.59;;;23.23;38.38
18569;BME280;14780;48.316;-1.050;2023-04-27T00:35:37;99001.78;;;23.24;38.37
18569;BME280;14780;48.316;-1.050;2023-04-27T00:38:21;99002.88;;;23.23;38.32
18569;BME280;14780;48.316;-1.050;2023-04-27T00:41:07;99003.13;;;23.21;38.43
18569;BME280;14780;48.316;-1.050;2023-04-27T00:43:52;98996.88;;;23.21;38.35
18569;BME280;14780;48.316;-1.050;2023-04-27T00:46:37;98993.56;;;23.19;38.34
18569;BME280;14780;48.316;-1.050;2023-04-27T00:49:23;98999.03;;;23.19;38.34
18569;BME280;14780;48.316;-1.050;2023-04-27T00:52:09;99002.84;;;23.18;38.34
18569;BME280;14780;48.316;-1.050;2023-04-27T00:54:56;98991.38;;;23.16;38.30
18569;BME280;14780;48.316;-1.050;2023-04-27T00:57:41;99001.22;;;23.17;38.34
18569;BME280;14780;48.316;-1.050;2023-04-27T01:00:26;98992.44;;;23.15;38.41
18569;BME280;14780;48.316;-1.050;2023-04-27T01:03:11;98992.44;;;23.15;38.32
18569;BME280;14780;48.316;-1.050;2023-04-27T01:05:55;98999.00;;;23.14;38.32
18569;BME280;14780;48.316;-1.050;2023-04-27T01:08:42;99001.75;;;23.14;38.34
18569;BME280;14780;48.316;-1.050;2023-04-27T01:11:27;98994.91;;;23.11;38.36
18569;BME280;14780;48.316;-1.050;2023-04-27T01:14:12;98989.69;;;23.10;38.37
18569;BME280;14780;48.316;-1.050;2023-04-27T01:16:56;98998.72;;;23.10;38.41
18569;BME280;14780;48.316;-1.050;2023-04-27T01:19:42;98992.44;;;23.10;38.37
18569;BME280;14780;48.316;-1.050;2023-04-27T01:22:28;98990.78;;;23.09;38.34
18569;BME280;14780;48.316;-1.050;2023-04-27T01:25:13;98996.50;;;23.07;38.31
18569;BME280;14780;48.316;-1.050;2023-04-27T01:27:58;99001.16;;;23.07;38.29
18569;BME280;14780;48.316;-1.050;2023-04-27T01:30:42;99001.16;;;23.07;38.31
18569;BME280;14780;48.316;-1.050;2023-04-27T01:33:27;98995.97;;;23.05;38.28
18569;BME280;14780;48.316;-1.050;2023-04-27T01:36:11;98995.13;;;23.05;38.38
18569;BME280;14780;48.316;-1.050;2023-04-27T01:38:56;98988.88;;;23.04;38.31
18569;BME280;14780;48.316;-1.050;2023-04-27T01:41:41;98977.13;;;23.04;38.35
18569;BME280;14780;48.316;-1.050;2023-04-27T01:44:25;98977.41;;;23.02;38.40
18569;BME280;14780;48.316;-1.050;2023-04-27T01:47:10;98970.31;;;23.01;38.33
18569;BME280;14780;48.316;-1.050;2023-04-27T01:49:55;98964.03;;;23.01;38.28
18569;BME280;14780;48.316;-1.050;2023-04-27T01:52:39;98967.56;;;23.01;38.32
18569;BME280;14780;48.316;-1.050;2023-04-27T01:55:24;98974.94;;;23.01;38.37
18569;BME280;14780;48.316;-1.050;2023-04-27T01:58:09;98966.22;;;22.99;38.31
18569;BME280;14780;48.316;-1.050;2023-04-27T02:00:54;98964.56;;;22.98;38.26
18569;BME280;14780;48.316;-1.050;2023-04-27T02:03:39;98964.56;;;22.98;38.29
18569;BME280;14780;48.316;-1.050;2023-04-27T02:06:24;98965.66;;;22.97;38.35
18569;BME280;14780;48.316;-1.050;2023-04-27T02:09:09;98955.84;;;22.96;38.33
18569;BME280;14780;48.316;-1.050;2023-04-27T02:11:54;98956.66;;;22.96;38.31
18569;BME280;14780;48.316;-1.050;2023-04-27T02:14:39;98947.66;;;22.96;38.28
18569;BME280;14780;48.316;-1.050;2023-04-27T02:17:24;98955.28;;;22.94;38.28
18569;BME280;14780;48.316;-1.050;2023-04-27T02:20:09;98957.19;;;22.93;38.31
18569;BME280;14780;48.316;-1.050;2023-04-27T02:22:54;98950.94;;;22.93;38.31
18569;BME280;14780;48.316;-1.050;2023-04-27T02:25:39;98960.19;;;22.92;38.37
18569;BME280;14780;48.316;-1.050;2023-04-27T02:28:26;98962.94;;;22.92;38.25
18569;BME280;14780;48.316;-1.050;2023-04-27T02:31:11;98961.25;;;22.91;38.37
18569;BME280;14780;48.316;-1.050;2023-04-27T02:33:55;98967.56;;;22.91;38.26
18569;BME280;14780;48.316;-1.050;2023-04-27T02:36:40;98964.00;;;22.91;38.22
18569;BME280;14780;48.316;-1.050;2023-04-27T02:39:24;98955.25;;;22.89;38.34
18569;BME280;14780;48.316;-1.050;2023-04-27T02:42:09;98945.44;;;22.88;38.35
18569;BME280;14780;48.316;-1.050;2023-04-27T02:44:54;98947.34;;;22.87;38.36
18569;BME280;14780;48.316;-1.050;2023-04-27T02:47:38;98951.16;;;22.86;38.31
18569;BME280;14780;48.316;-1.050;2023-04-27T02:50:23;98943.28;;;22.85;38.24
18569;BME280;14780;48.316;-1.050;2023-04-27T02:53:09;98937.81;;;22.85;38.27
18569;BME280;14780;48.316;-1.050;2023-04-27T02:55:53;98935.88;;;22.85;38.27
18569;BME280;14780;48.316;-1.050;2023-04-27T02:58:38;98932.63;;;22.83;38.33
18569;BME280;14780;48.316;-1.050;2023-04-27T03:01:23;98923.59;;;22.83;38.30
18569;BME280;14780;48.316;-1.050;2023-04-27T03:04:07;98930.72;;;22.84;38.27
18569;BME280;14780;48.316;-1.050;2023-04-27T03:06:52;98925.78;;;22.81;38.36
18569;BME280;14780;48.316;-1.050;2023-04-27T03:09:37;98925.78;;;22.81;38.28
18569;BME280;14780;48.316;-1.050;2023-04-27T03:12:22;98928.50;;;22.81;38.31
18569;BME280;14780;48.316;-1.050;2023-04-27T03:15:07;98932.34;;;22.80;38.29
18569;BME280;14780;48.316;-1.050;2023-04-27T03:17:51;98933.44;;;22.79;38.32
18569;BME280;14780;48.316;-1.050;2023-04-27T03:20:36;98930.16;;;22.77;38.34
18569;BME280;14780;48.316;-1.050;2023-04-27T03:23:21;98940.25;;;22.76;38.35
18569;BME280;14780;48.316;-1.050;2023-04-27T03:26:10;98947.59;;;22.76;38.29
18569;BME280;14780;48.316;-1.050;2023-04-27T03:28:54;98944.84;;;22.76;38.25
18569;BME280;14780;48.316;-1.050;2023-04-27T03:31:40;98940.50;;;22.75;38.39
18569;BME280;14780;48.316;-1.050;2023-04-27T03:34:24;98945.41;;;22.73;38.35
18569;BME280;14780;48.316;-1.050;2023-04-27T03:37:09;98942.69;;;22.73;38.27
18569;BME280;14780;48.316;-1.050;2023-04-27T03:39:54;98943.78;;;22.72;38.33
18569;BME280;14780;48.316;-1.050;2023-04-27T03:42:39;98941.31;;;22.70;38.27
18569;BME280;14780;48.316;-1.050;2023-04-27T03:45:24;98940.50;;;22.70;38.35
18569;BME280;14780;48.316;-1.050;2023-04-27T03:48:09;98942.13;;;22.71;38.31
18569;BME280;14780;48.316;-1.050;2023-04-27T03:50:54;98943.47;;;22.68;38.31
18569;BME280;14780;48.316;-1.050;2023-04-27T03:53:39;98931.75;;;22.68;38.44
18569;BME280;14780;48.316;-1.050;2023-04-27T03:56:23;98927.38;;;22.67;38.36
18569;BME280;14780;48.316;-1.050;2023-04-27T03:59:08;98929.31;;;22.66;38.33
18569;BME280;14780;48.316;-1.050;2023-04-27T04:01:53;98927.94;;;22.64;38.42
18569;BME280;14780;48.316;-1.050;2023-04-27T04:04:37;98926.84;;;22.65;38.42
18569;BME280;14780;48.316;-1.050;2023-04-27T04:07:22;98921.66;;;22.63;38.43
18569;BME280;14780;48.316;-1.050;2023-04-27T04:10:07;98921.09;;;22.61;38.41
18569;BME280;14780;48.316;-1.050;2023-04-27T04:12:52;98923.00;;;22.61;38.39
18569;BME280;14780;48.316;-1.050;2023-04-27T04:15:37;98918.63;;;22.60;38.50
18569;BME280;14780;48.316;-1.050;2023-04-27T04:18:23;98901.72;;;22.58;38.48
18569;BME280;14780;48.316;-1.050;2023-04-27T04:21:08;98904.44;;;22.58;38.43
18569;BME280;14780;48.316;-1.050;2023-04-27T04:23:54;98905.25;;;22.58;38.34
18569;BME280;14780;48.316;-1.050;2023-04-27T04:26:39;98896.28;;;22.58;38.44
18569;BME280;14780;48.316;-1.050;2023-04-27T04:29:25;98890.28;;;22.56;38.39
18569;BME280;14780;48.316;-1.050;2023-04-27T04:32:10;98895.72;;;22.56;38.47
18569;BME280;14780;48.316;-1.050;2023-04-27T04:34:56;98887.81;;;22.54;38.46
18569;BME280;14780;48.316;-1.050;2023-04-27T04:37:41;98882.63;;;22.53;38.45
18569;BME280;14780;48.316;-1.050;2023-04-27T04:40:26;98876.91;;;22.54;38.48
18569;BME280;14780;48.316;-1.050;2023-04-27T04:43:11;98871.16;;;22.51;38.43
18569;BME280;14780;48.316;-1.050;2023-04-27T04:45:56;98860.81;;;22.53;38.46
18569;BME280;14780;48.316;-1.050;2023-04-27T04:48:41;98851.81;;;22.52;38.43
18569;BME280;14780;48.316;-1.050;2023-04-27T04:51:26;98858.63;;;22.50;38.51
18569;BME280;14780;48.316;-1.050;2023-04-27T04:54:11;98872.25;;;22.50;38.50
18569;BME280;14780;48.316;-1.050;2023-04-27T04:56:56;98880.44;;;22.50;38.44
18569;BME280;14780;48.316;-1.050;2023-04-27T04:59:42;98879.91;;;22.48;38.51
18569;BME280;14780;48.316;-1.050;2023-04-27T05:02:27;98871.44;;;22.49;38.59
18569;BME280;14780;48.316;-1.050;2023-04-27T05:05:11;98867.91;;;22.49;38.51
18569;BME280;14780;48.316;-1.050;2023-04-27T05:07:56;98864.09;;;22.50;38.51
18569;BME280;14780;48.316;-1.050;2023-04-27T05:10:40;98877.16;;;22.48;38.58
18569;BME280;14780;48.316;-1.050;2023-04-27T05:13:25;98870.63;;;22.49;38.52
18569;BME280;14780;48.316;-1.050;2023-04-27T05:16:10;98871.72;;;22.48;38.47
18569;BME280;14780;48.316;-1.050;2023-04-27T05:18:54;98859.16;;;22.47;38.46
18569;BME280;14780;48.316;-1.050;2023-04-27T05:21:39;98868.16;;;22.47;38.35
18569;BME280;14780;48.316;-1.050;2023-04-27T05:24:25;98877.69;;;22.45;38.72
18569;BME280;14780;48.316;-1.050;2023-04-27T05:27:12;98890.50;;;22.44;38.51
18569;BME280;14780;48.316;-1.050;2023-04-27T05:29:57;98888.59;;;22.45;38.43
18569;BME280;14780;48.316;-1.050;2023-04-27T05:32:43;98888.59;;;22.45;38.50
18569;BME280;14780;48.316;-1.050;2023-04-27T05:35:28;98883.69;;;22.42;38.56
18569;BME280;14780;48.316;-1.050;2023-04-27T05:38:14;98869.75;;;22.38;38.59
18569;BME280;14780;48.316;-1.050;2023-04-27T05:41:01;98873.84;;;22.41;38.53
18569;BME280;14780;48.316;-1.050;2023-04-27T05:43:46;98885.81;;;22.40;38.51
18569;BME280;14780;48.316;-1.050;2023-04-27T05:46:31;98873.28;;;22.39;38.55
18569;BME280;14780;48.316;-1.050;2023-04-27T05:49:16;98873.56;;;22.37;38.58
18569;BME280;14780;48.316;-1.050;2023-04-27T05:52:01;98868.38;;;22.36;38.59
18569;BME280;14780;48.316;-1.050;2023-04-27T05:54:48;98875.44;;;22.37;38.61
18569;BME280;14780;48.316;-1.050;2023-04-27T05:57:34;98883.88;;;22.35;38.53
18569;BME280;14780;48.316;-1.050;2023-04-27T06:00:18;98882.00;;;22.36;38.50
18569;BME280;14780;48.316;-1.050;2023-04-27T06:03:05;98879.78;;;22.33;38.55
18569;BME280;14780;48.316;-1.050;2023-04-27T06:05:55;98883.88;;;22.35;38.56
18569;BME280;14780;48.316;-1.050;2023-04-27T06:08:40;98890.16;;;22.36;38.52
18569;BME280;14780;48.316;-1.050;2023-04-27T06:11:25;98889.63;;;22.34;38.56
18569;BME280;14780;48.316;-1.050;2023-04-27T06:14:10;98889.06;;;22.32;38.50
18569;BME280;14780;48.316;-1.050;2023-04-27T06:16:54;98897.22;;;22.32;38.59
18569;BME280;14780;48.316;-1.050;2023-04-27T06:19:39;98895.34;;;22.32;38.59
18569;BME280;14780;48.316;-1.050;2023-04-27T06:22:24;98899.94;;;22.32;38.61
18569;BME280;14780;48.316;-1.050;2023-04-27T06:25:09;98907.03;;;22.33;38.59
18569;BME280;14780;48.316;-1.050;2023-04-27T06:27:55;98916.31;;;22.32;38.67
18569;BME280;14780;48.316;-1.050;2023-04-27T06:30:39;98918.78;;;22.33;38.76
18569;BME280;14780;48.316;-1.050;2023-04-27T06:33:24;98909.50;;;22.34;38.78
18569;BME280;14780;48.316;-1.050;2023-04-27T06:36:09;98903.53;;;22.37;38.77
18569;BME280;14780;48.316;-1.050;2023-04-27T06:38:55;98903.00;;;22.40;38.84
18569;BME280;14780;48.316;-1.050;2023-04-27T06:41:40;98910.41;;;22.45;38.99
18569;BME280;14780;48.316;-1.050;2023-04-27T06:44:25;98918.06;;;22.48;38.86
18569;BME280;14780;48.316;-1.050;2023-04-27T06:47:10;98926.25;;;22.53;38.83
18569;BME280;14780;48.316;-1.050;2023-04-27T06:49:55;98918.34;;;22.56;38.80
18569;BME280;14780;48.316;-1.050;2023-04-27T06:52:39;98926.00;;;22.59;38.92
18569;BME280;14780;48.316;-1.050;2023-04-27T06:55:24;98929.28;;;22.61;38.78
18569;BME280;14780;48.316;-1.050;2023-04-27T06:58:09;98931.75;;;22.63;38.79
18569;BME280;14780;48.316;-1.050;2023-04-27T07:00:54;98930.66;;;22.64;38.87
18569;BME280;14780;48.316;-1.050;2023-04-27T07:03:39;98931.75;;;22.68;38.84
18569;BME280;14780;48.316;-1.050;2023-04-27T07:06:24;98942.13;;;22.71;38.82
18569;BME280;14780;48.316;-1.050;2023-04-27T07:09:09;98936.38;;;22.72;38.84
18569;BME280;14780;48.316;-1.050;2023-04-27T07:11:55;98937.22;;;22.73;38.91
18569;BME280;14780;48.316;-1.050;2023-04-27T07:14:40;98945.41;;;22.73;39.05
18569;BME280;14780;48.316;-1.050;2023-04-27T07:17:26;98932.88;;;22.72;38.99
18569;BME280;14780;48.316;-1.050;2023-04-27T07:20:11;98937.22;;;22.73;39.00
18569;BME280;14780;48.316;-1.050;2023-04-27T07:22:57;98927.94;;;22.69;38.92
18569;BME280;14780;48.316;-1.050;2023-04-27T07:25:42;98925.19;;;22.69;38.86
18569;BME280;14780;48.316;-1.050;2023-04-27T07:28:29;98926.28;;;22.68;38.89
18569;BME280;14780;48.316;-1.050;2023-04-27T07:31:13;98927.94;;;22.64;38.95
18569;BME280;14780;48.316;-1.050;2023-04-27T07:33:58;98919.75;;;22.64;39.00
18569;BME280;14780;48.316;-1.050;2023-04-27T07:36:44;98924.63;;;22.62;39.09
18569;BME280;14780;48.316;-1.050;2023-04-27T07:39:29;98920.28;;;22.61;39.05
18569;BME280;14780;48.316;-1.050;2023-04-27T07:42:13;98917.53;;;22.61;39.14
18569;BME280;14780;48.316;-1.050;2023-04-27T07:44:58;98917.00;;;22.59;39.14
18569;BME280;14780;48.316;-1.050;2023-04-27T07:47:43;98909.34;;;22.61;39.14
18569;BME280;14780;48.316;-1.050;2023-04-27T07:50:28;98904.19;;;22.59;39.10
18569;BME280;14780;48.316;-1.050;2023-04-27T07:53:13;98897.06;;;22.58;39.16
18569;BME280;14780;48.316;-1.050;2023-04-27T07:55:58;98899.81;;;22.58;39.23
18569;BME280;14780;48.316;-1.050;2023-04-27T07:58:43;98901.19;;;22.56;39.12
18569;BME280;14780;48.316;-1.050;2023-04-27T08:01:27;98897.38;;;22.57;39.20
18569;BME280;14780;48.316;-1.050;2023-04-27T08:04:12;98894.91;;;22.55;39.21
18569;BME280;14780;48.316;-1.050;2023-04-27T08:06:58;98896.78;;;22.55;39.24
18569;BME280;14780;48.316;-1.050;2023-04-27T08:09:43;98906.63;;;22.56;39.30
18569;BME280;14780;48.316;-1.050;2023-04-27T08:12:28;98903.34;;;22.54;39.27
18569;BME280;14780;48.316;-1.050;2023-04-27T08:15:13;98907.16;;;22.53;39.35
18569;BME280;14780;48.316;-1.050;2023-04-27T08:17:57;98910.13;;;22.51;39.26
18569;BME280;14780;48.316;-1.050;2023-04-27T08:20:42;98915.34;;;22.53;39.26
18569;BME280;14780;48.316;-1.050;2023-04-27T08:23:27;98912.59;;;22.53;39.30
18569;BME280;14780;48.316;-1.050;2023-04-27T08:26:15;98922.72;;;22.52;39.31
18569;BME280;14780;48.316;-1.050;2023-04-27T08:29:01;98928.97;;;22.53;39.29
18569;BME280;14780;48.316;-1.050;2023-04-27T08:31:46;98928.16;;;22.52;39.37
18569;BME280;14780;48.316;-1.050;2023-04-27T08:34:31;98920.00;;;22.52;39.28
18569;BME280;14780;48.316;-1.050;2023-04-27T08:37:15;98902.53;;;22.53;39.42
18569;BME280;14780;48.316;-1.050;2023-04-27T08:40:04;98892.16;;;22.50;39.35
18569;BME280;14780;48.316;-1.050;2023-04-27T08:42:55;98896.25;;;22.53;39.31
18569;BME280;14780;48.316;-1.050;2023-04-27T08:45:47;98896.25;;;22.53;39.41
18569;BME280;14780;48.316;-1.050;2023-04-27T08:48:33;98895.69;;;22.51;39.42
18569;BME280;14780;48.316;-1.050;2023-04-27T08:51:18;98895.69;;;22.51;39.49
18569;BME280;14780;48.316;-1.050;2023-04-27T08:54:04;98891.34;;;22.50;39.48
18569;BME280;14780;48.316;-1.050;2023-04-27T08:56:49;98892.16;;;22.50;39.47
18569;BME280;14780;48.316;-1.050;2023-04-27T08:59:33;98903.06;;;22.50;39.51
18569;BME280;14780;48.316;-1.050;2023-04-27T09:02:20;98896.78;;;22.50;39.54
18569;BME280;14780;48.316;-1.050;2023-04-27T09:05:05;98895.69;;;22.51;39.52
18569;BME280;14780;48.316;-1.050;2023-04-27T09:08:05;98899.22;;;22.51;39.48
18569;BME280;14780;48.316;-1.050;2023-04-27T09:10:52;98906.34;;;22.52;39.53
18569;BME280;14780;48.316;-1.050;2023-04-27T09:13:39;98895.44;;;22.52;39.55
18569;BME280;14780;48.316;-1.050;2023-04-27T09:16:27;98890.78;;;22.53;39.52
18569;BME280;14780;48.316;-1.050;2023-04-27T09:19:26;98895.19;;;22.59;39.48
18569;BME280;14780;48.316;-1.050;2023-04-27T09:22:11;98894.06;;;22.55;39.52
18569;BME280;14780;48.316;-1.050;2023-04-27T09:24:58;98888.09;;;22.58;39.61
18569;BME280;14780;48.316;-1.050;2023-04-27T09:27:43;98885.38;;;22.58;39.55
18569;BME280;14780;48.316;-1.050;2023-04-27T09:30:28;98887.00;;;22.59;39.53
18569;BME280;14780;48.316;-1.050;2023-04-27T09:33:13;98891.38;;;22.60;39.64
18569;BME280;14780;48.316;-1.050;2023-04-27T09:36:01;98890.56;;;22.59;39.63
18569;BME280;14780;48.316;-1.050;2023-04-27T09:38:46;98890.28;;;22.61;39.71
18569;BME280;14780;48.316;-1.050;2023-04-27T09:41:35;98892.19;;;22.60;39.75
18569;BME280;14780;48.316;-1.050;2023-04-27T09:44:20;98891.91;;;22.62;39.69
18569;BME280;14780;48.316;-1.050;2023-04-27T09:47:05;98885.66;;;22.61;39.69
18569;BME280;14780;48.316;-1.050;2023-04-27T09:49:51;98877.47;;;22.61;39.70
18569;BME280;14780;48.316;-1.050;2023-04-27T09:52:36;98871.19;;;22.61;39.75
18569;BME280;14780;48.316;-1.050;2023-04-27T09:55:28;98869.03;;;22.63;39.71
18569;BME280;14780;48.316;-1.050;2023-04-27T10:01:53;98861.38;;;22.65;39.63
18569;BME280;14780;48.316;-1.050;2023-04-27T10:07:32;98860.28;;;22.61;39.64
18569;BME280;14780;48.316;-1.050;2023-04-27T10:10:18;98860.28;;;22.61;39.63
18569;BME280;14780;48.316;-1.050;2023-04-27T10:13:03;98859.47;;;22.60;39.67
18569;BME280;14780;48.316;-1.050;2023-04-27T10:15:49;98845.56;;;22.62;39.73
18569;BME280;14780;48.316;-1.050;2023-04-27T10:18:36;98851.84;;;22.62;39.97
18569;BME280;14780;48.316;-1.050;2023-04-27T10:21:21;98845.31;;;22.68;40.03
18569;BME280;14780;48.316;-1.050;2023-04-27T10:24:08;98840.94;;;22.72;40.00
18569;BME280;14780;48.316;-1.050;2023-04-27T10:26:58;98840.69;;;22.79;40.06
18569;BME280;14780;48.316;-1.050;2023-04-27T10:29:45;98834.97;;;22.80;40.16
18569;BME280;14780;48.316;-1.050;2023-04-27T10:32:30;98830.59;;;22.84;40.15
18569;BME280;14780;48.316;-1.050;2023-04-27T10:35:15;98833.88;;;22.86;40.18
18569;BME280;14780;48.316;-1.050;2023-04-27T10:38:13;98837.13;;;22.93;40.21
18569;BME280;14780;48.316;-1.050;2023-04-27T10:41:04;98821.06;;;22.92;40.20
18569;BME280;14780;48.316;-1.050;2023-04-27T10:43:49;98820.50;;;22.95;40.11
18569;BME280;14780;48.316;-1.050;2023-04-27T10:46:34;98831.69;;;22.98;40.19
18569;BME280;14780;48.316;-1.050;2023-04-27T10:49:20;98825.69;;;23.01;40.33
18569;BME280;14780;48.316;-1.050;2023-04-27T10:52:05;98824.06;;;23.05;40.42
18569;BME280;14780;48.316;-1.050;2023-04-27T10:54:50;98816.41;;;23.07;40.56
18569;BME280;14780;48.316;-1.050;2023-04-27T10:57:43;98827.59;;;23.11;40.50
18569;BME280;14780;48.316;-1.050;2023-04-27T11:00:34;98819.97;;;23.13;40.93
18569;BME280;14780;48.316;-1.050;2023-04-27T11:03:24;98818.88;;;23.14;41.27
18569;BME280;14780;48.316;-1.050;2023-04-27T11:06:09;98821.91;;;23.17;41.17
18569;BME280;14780;48.316;-1.050;2023-04-27T11:08:55;98832.53;;;23.19;41.30
18569;BME280;14780;48.316;-1.050;2023-04-27T11:11:43;98840.47;;;23.20;41.59
18569;BME280;14780;48.316;-1.050;2023-04-27T11:14:29;98839.91;;;23.23;41.48
18569;BME280;14780;48.316;-1.050;2023-04-27T11:17:15;98835.28;;;23.24;41.70
18569;BME280;14780;48.316;-1.050;2023-04-27T11:20:00;98835.81;;;23.26;41.67
18569;BME280;14780;48.316;-1.050;2023-04-27T11:22:45;98835.81;;;23.26;41.53
18569;BME280;14780;48.316;-1.050;2023-04-27T11:25:30;98832.53;;;23.24;41.47
18569;BME280;14780;48.316;-1.050;2023-04-27T11:28:22;98828.97;;;23.23;41.32
18569;BME280;14780;48.316;-1.050;2023-04-27T11:31:07;98825.19;;;23.19;41.30
18569;BME280;14780;48.316;-1.050;2023-04-27T11:33:53;98823.53;;;23.18;41.26
18569;BME280;14780;48.316;-1.050;2023-04-27T11:36:38;98816.72;;;23.16;41.21
18569;BME280;14780;48.316;-1.050;2023-04-27T11:39:25;98812.84;;;23.12;41.24
18569;BME280;14780;48.316;-1.050;2023-04-27T11:42:20;98812.84;;;23.12;41.25
18569;BME280;14780;48.316;-1.050;2023-04-27T11:45:10;98802.50;;;23.09;41.28
18569;BME280;14780;48.316;-1.050;2023-04-27T11:47:58;98798.41;;;23.06;41.25
18569;BME280;14780;48.316;-1.050;2023-04-27T11:50:46;98790.47;;;23.05;41.18
18569;BME280;14780;48.316;-1.050;2023-04-27T11:53:35;98788.59;;;23.05;41.07
18569;BME280;14780;48.316;-1.050;2023-04-27T11:56:20;98786.94;;;22.99;41.09
18569;BME280;14780;48.316;-1.050;2023-04-27T11:59:16;98782.59;;;22.98;41.10
18569;BME280;14780;48.316;-1.050;2023-04-27T12:02:01;98763.50;;;22.98;41.11
18569;BME280;14780;48.316;-1.050;2023-04-27T12:04:50;98780.13;;;22.97;41.08
18569;BME280;14780;48.316;-1.050;2023-04-27T12:07:35;98775.75;;;22.96;41.11
18569;BME280;14780;48.316;-1.050;2023-04-27T12:10:20;98779.59;;;22.95;41.14
18569;BME280;14780;48.316;-1.050;2023-04-27T12:13:05;98780.41;;;22.95;41.09
18569;BME280;14780;48.316;-1.050;2023-04-27T12:15:51;98780.94;;;22.92;41.10
18569;BME280;14780;48.316;-1.050;2023-04-27T12:18:35;98785.59;;;22.92;41.12
18569;BME280;14780;48.316;-1.050;2023-04-27T12:21:20;98785.59;;;22.92;41.04
18569;BME280;14780;48.316;-1.050;2023-04-27T12:24:05;98791.06;;;22.92;41.01
18569;BME280;14780;48.316;-1.050;2023-04-27T12:26:50;98786.13;;;22.89;41.03
18569;BME280;14780;48.316;-1.050;2023-04-27T12:29:35;98790.78;;;22.88;41.09
18569;BME280;14780;48.316;-1.050;2023-04-27T12:32:21;98788.84;;;22.89;41.01
18569;BME280;14780;48.316;-1.050;2023-04-27T12:35:07;98781.75;;;22.88;41.06
18569;BME280;14780;48.316;-1.050;2023-04-27T12:37:53;98785.31;;;22.88;40.93
18569;BME280;14780;48.316;-1.050;2023-04-27T12:40:37;98766.50;;;22.87;40.98
18569;BME280;14780;48.316;-1.050;2023-04-27T12:43:22;98777.41;;;22.87;41.12
18569;BME280;14780;48.316;-1.050;2023-04-27T12:46:06;98779.03;;;22.88;40.98
18569;BME280;14780;48.316;-1.050;2023-04-27T12:48:52;98776.31;;;22.88;41.03
18569;BME280;14780;48.316;-1.050;2023-04-27T12:51:37;98764.31;;;22.89;41.14
18569;BME280;14780;48.316;-1.050;2023-04-27T12:54:22;98775.50;;;22.92;41.13
18569;BME280;14780;48.316;-1.050;2023-04-27T12:57:07;98765.13;;;22.94;41.35
18569;BME280;14780;48.316;-1.050;2023-04-27T12:59:52;98759.38;;;22.96;41.44
18569;BME280;14780;48.316;-1.050;2023-04-27T13:02:37;98755.03;;;22.95;41.48
18569;BME280;14780;48.316;-1.050;2023-04-27T13:05:21;98745.75;;;22.96;41.50
18569;BME280;14780;48.316;-1.050;2023-04-27T13:08:06;98749.56;;;22.95;41.51
18569;BME280;14780;48.316;-1.050;2023-04-27T13:10:51;98756.94;;;22.94;41.58
18569;BME280;14780;48.316;-1.050;2023-04-27T13:13:36;98750.94;;;22.92;41.62
18569;BME280;14780;48.316;-1.050;2023-04-27T13:16:21;98752.88;;;22.92;41.53
18569;BME280;14780;48.316;-1.050;2023-04-27T13:19:08;98757.75;;;22.90;41.58
18569;BME280;14780;48.316;-1.050;2023-04-27T13:21:53;98764.84;;;22.91;41.58
18569;BME280;14780;48.316;-1.050;2023-04-27T13:24:37;98760.47;;;22.90;41.62
18569;BME280;14780;48.316;-1.050;2023-04-27T13:27:22;98764.31;;;22.89;41.59
18569;BME280;14780;48.316;-1.050;2023-04-27T13:30:09;98774.13;;;22.90;41.60
18569;BME280;14780;48.316;-1.050;2023-04-27T13:32:54;98776.31;;;22.88;41.66
18569;BME280;14780;48.316;-1.050;2023-04-27T13:35:39;98777.13;;;22.88;41.68
18569;BME280;14780;48.316;-1.050;2023-04-27T13:38:24;98775.22;;;22.89;41.59
18569;BME280;14780;48.316;-1.050;2023-04-27T13:41:09;98773.59;;;22.88;41.65
18569;BME280;14780;48.316;-1.050;2023-04-27T13:43:54;98769.75;;;22.89;41.70
18569;BME280;14780;48.316;-1.050;2023-04-27T13:46:39;98765.41;;;22.88;41.61
18569;BME280;14780;48.316;-1.050;2023-04-27T13:49:24;98772.47;;;22.89;41.59
18569;BME280;14780;48.316;-1.050;2023-04-27T13:52:09;98775.22;;;22.89;41.59
18569;BME280;14780;48.316;-1.050;2023-04-27T13:54:54;98768.13;;;22.88;41.62
18569;BME280;14780;48.316;-1.050;2023-04-27T13:57:39;98772.75;;;22.87;41.64
18569;BME280;14780;48.316;-1.050;2023-04-27T14:00:23;98769.22;;;22.87;41.50
18569;BME280;14780;48.316;-1.050;2023-04-27T14:03:09;98771.94;;;22.87;41.55
18569;BME280;14780;48.316;-1.050;2023-04-27T14:05:55;98769.22;;;22.87;41.44
18569;BME280;14780;48.316;-1.050;2023-04-27T14:08:40;98762.13;;;22.86;41.61
18569;BME280;14780;48.316;-1.050;2023-04-27T14:11:25;98764.88;;;22.86;41.57
18569;BME280;14780;48.316;-1.050;2023-04-27T14:14:10;98756.94;;;22.84;41.62
18569;BME280;14780;48.316;-1.050;2023-04-27T14:16:55;98770.03;;;22.87;41.78
18569;BME280;14780;48.316;-1.050;2023-04-27T14:19:40;98769.50;;;22.90;41.90
18569;BME280;14780;48.316;-1.050;2023-04-27T14:22:26;98775.22;;;22.94;42.09
18569;BME280;14780;48.316;-1.050;2023-04-27T14:25:11;98768.66;;;22.95;42.02
18569;BME280;14780;48.316;-1.050;2023-04-27T14:27:56;98770.31;;;22.96;42.18
18569;BME280;14780;48.316;-1.050;2023-04-27T14:30:40;98772.78;;;22.97;42.15
18569;BME280;14780;48.316;-1.050;2023-04-27T14:33:25;98771.66;;;22.98;42.08